KDBQ/DBQ METAR and TAF weather

Enter ICAO airport designator
Station Type Date Time Source
KDBQ METAR 2019/05/27 08:53 UTC NOAA

KDBQ 270853Z AUTO 12011KT 10SM CLR 15/13 A2997 RMK AO2 SLP146 T01500128 58021 $


Station Type Date Time Source
KDBQ Decoded METAR 2019/05/27 08:53 UTC NOAA

DUBUQUE REGIONAL AIRPORT, IA, United States (KDBQ) 42-24N 90-42W 326M
May 27, 2019 - 04:53 AM EDT / 2019.05.27 0853 UTC
Wind: from the ESE (120 degrees) at 13 MPH (11 KT):0
Visibility: 10 mile(s):0
Sky conditions: clear
Temperature: 59.0 F (15.0 C)
Dew Point: 55.0 F (12.8 C)
Relative Humidity: 86%
Pressure (altimeter): 29.97 in. Hg (1014 hPa)
Pressure tendency: 0.06 inches (2.1 hPa) lower than three hours ago
ob: KDBQ 270853Z AUTO 12011KT 10SM CLR 15/13 A2997 RMK AO2 SLP146 T01500128 58021
cycle: 9

Station Type Date Time Source
KDBQ TAF 2019/05/27 06:22 UTC NOAA

TAF KDBQ 270520Z 2706/2806 08006KT P6SM BKN250
FM271400 14012KT 4SM -TSRA BKN030CB
FM271600 15013G19KT P6SM BKN015
FM271800 19014G22KT P6SM VCTS BKN025CB
FM280000 24011KT P6SM SCT100

Example: see airport list